Time;durP1;ratioP1;P1;durP2;ratioP2;P2;SDS_P1;SDS_P2;PMS_P1;PMS_P2;Temp;Humidity;BMP_temperature;BMP_pressure;BME280_temperature;BME280_humidity;BME280_pressure;Samples;Min_cycle;Max_cycle;Signal;HPM_P1;HPM_P2
2023/06/27 00:00:33;;;;;;;3.40;2.30;;;;;;;20.39;55.93;96779.84;10147009;29;20048;-50
2023/06/27 00:06:19;;;;;;;2.72;2.47;;;;;;;20.38;55.89;96783.69;10134533;29;20076;-51
2023/06/27 00:11:39;;;;;;;2.90;2.20;;;;;;;20.38;56.08;96778.25;10146803;29;20061;-51
2023/06/27 00:17:00;;;;;;;2.10;1.90;;;;;;;20.38;56.04;96780.97;10132512;29;20040;-52
2023/06/27 00:22:19;;;;;;;3.03;2.22;;;;;;;20.37;56.09;96774.78;10153454;29;20049;-51
2023/06/27 00:27:39;;;;;;;2.85;2.20;;;;;;;20.39;56.20;96787.97;10154471;29;20454;-51
2023/06/27 00:32:58;;;;;;;2.55;2.22;;;;;;;20.38;56.30;96779.03;10140005;29;20100;-51
2023/06/27 00:38:18;;;;;;;3.35;2.15;;;;;;;20.39;56.31;96769.81;10154143;29;20048;-51
2023/06/27 00:43:38;;;;;;;2.80;2.00;;;;;;;20.38;56.27;96779.03;10153933;29;20052;-52
2023/06/27 00:48:57;;;;;;;3.15;2.35;;;;;;;20.39;56.50;96791.47;10152237;29;20048;-51
2023/06/27 00:54:16;;;;;;;2.50;2.30;;;;;;;20.39;56.44;96794.16;10139245;29;20059;-50
2023/06/27 00:59:37;;;;;;;2.88;2.13;;;;;;;20.39;56.47;96791.47;10139139;29;20060;-51
2023/06/27 01:04:57;;;;;;;2.42;2.17;;;;;;;20.39;56.44;96790.69;10153195;29;20162;-51
2023/06/27 01:10:44;;;;;;;2.70;2.20;;;;;;;20.38;56.56;96822.34;10138406;29;20040;-51
2023/06/27 01:16:05;;;;;;;2.72;2.30;;;;;;;20.41;56.52;96818.19;10138662;29;20045;-52
2023/06/27 01:21:27;;;;;;;2.55;2.30;;;;;;;20.40;56.53;96813.91;10112736;29;20075;-51
2023/06/27 01:26:48;;;;;;;3.15;2.42;;;;;;;20.39;56.55;96832.06;10112808;29;20060;-50
2023/06/27 01:32:14;;;;;;;2.85;2.30;;;;;;;20.41;56.60;96831.72;10151787;29;20466;-52
2023/06/27 01:37:45;;;;;;;2.42;2.22;;;;;;;20.39;56.67;96831.28;10137836;29;20044;-51
2023/06/27 01:43:10;;;;;;;2.50;2.20;;;;;;;20.39;56.72;96832.06;10151677;29;20040;-51
2023/06/27 01:48:29;;;;;;;2.47;2.10;;;;;;;20.39;56.73;96845.59;10124771;29;20060;-51
2023/06/27 01:53:49;;;;;;;3.05;2.72;;;;;;;20.40;56.73;96832.84;10138895;29;20060;-51
2023/06/27 01:59:08;;;;;;;3.13;2.20;;;;;;;20.40;56.74;96846.38;10151168;29;20366;-52
2023/06/27 02:04:28;;;;;;;2.75;2.00;;;;;;;20.41;56.89;96842.56;10151026;29;20040;-51
2023/06/27 02:09:47;;;;;;;2.72;2.33;;;;;;;20.39;57.00;96826.66;10150582;29;20052;-51
2023/06/27 02:15:07;;;;;;;3.17;2.53;;;;;;;20.40;56.90;96830.91;10136380;29;20051;-52
2023/06/27 02:20:27;;;;;;;3.72;2.40;;;;;;;20.40;56.91;96825.50;10136210;29;20049;-51
2023/06/27 02:25:46;;;;;;;2.20;2.00;;;;;;;20.40;56.96;96835.53;10150218;29;20126;-51
2023/06/27 02:31:07;;;;;;;2.50;2.28;;;;;;;20.39;57.03;96842.88;10149777;29;20049;-51
2023/06/27 02:36:27;;;;;;;2.72;2.40;;;;;;;20.41;57.07;96853.38;10149722;29;20044;-51
2023/06/27 02:41:49;;;;;;;2.58;2.33;;;;;;;20.41;57.09;96850.66;10096039;29;20421;-51
2023/06/27 02:47:08;;;;;;;2.30;2.10;;;;;;;20.40;57.21;96857.19;10110578;29;20065;-51
2023/06/27 02:52:28;;;;;;;2.75;2.40;;;;;;;20.39;57.09;96882.69;10099901;29;20689;-52
2023/06/27 02:57:48;;;;;;;2.42;2.22;;;;;;;20.41;57.17;96888.56;10110221;29;20486;-52
2023/06/27 03:03:07;;;;;;;2.30;2.10;;;;;;;20.40;57.15;96889.66;10083632;29;20064;-51
2023/06/27 03:08:27;;;;;;;2.30;2.10;;;;;;;20.41;57.18;96885.84;10095704;29;20041;-51
2023/06/27 03:13:47;;;;;;;2.47;2.28;;;;;;;20.40;57.24;96890.44;10148138;29;20055;-51
2023/06/27 03:19:07;;;;;;;2.58;2.38;;;;;;;20.41;57.34;96902.09;10126625;29;20143;-51
2023/06/27 03:24:26;;;;;;;2.20;2.00;;;;;;;20.40;57.27;96881.53;10148007;29;20044;-51
2023/06/27 03:29:46;;;;;;;2.50;2.30;;;;;;;20.40;57.36;96890.44;10133787;29;20048;-52
2023/06/27 03:35:07;;;;;;;2.75;2.40;;;;;;;20.41;57.40;96904.78;10133617;29;20516;-51
2023/06/27 03:40:26;;;;;;;6.50;2.50;;;;;;;20.41;57.50;96908.28;10147677;29;20420;-51
2023/06/27 03:45:47;;;;;;;3.30;2.20;;;;;;;20.41;57.50;96921.03;10147564;29;20044;-51
2023/06/27 03:51:07;;;;;;;2.53;2.33;;;;;;;20.42;57.57;96919.88;10139243;29;20529;-51
2023/06/27 03:56:27;;;;;;;2.60;2.40;;;;;;;20.41;57.51;96923.72;10147271;29;20052;-51
2023/06/27 04:01:46;;;;;;;2.35;2.15;;;;;;;20.40;57.63;96920.22;10120697;29;20087;-51
2023/06/27 04:07:06;;;;;;;3.20;2.03;;;;;;;20.39;57.53;96928.69;10106513;29;20417;-51
2023/06/27 04:12:25;;;;;;;2.97;2.10;;;;;;;20.23;57.52;96937.34;10136196;29;20044;-51
2023/06/27 04:17:45;;;;;;;4.40;1.92;;;;;;;19.92;58.47;96945.72;10134504;29;20060;-52
2023/06/27 04:23:05;;;;;;;3.22;2.25;;;;;;;19.49;59.89;96933.84;10120230;29;20079;-51
2023/06/27 04:33:55;;;;;;;7.23;2.50;;;;;;;19.05;61.72;96937.69;10113409;29;20104;-54
2023/06/27 04:39:15;;;;;;;3.30;2.15;;;;;;;18.84;62.68;96938.31;10146438;29;20060;-54
2023/06/27 04:44:34;;;;;;;2.95;2.05;;;;;;;18.80;62.63;96934.66;10145677;29;20044;-54
2023/06/27 04:49:53;;;;;;;3.72;2.10;;;;;;;18.80;62.63;96934.66;10146202;29;20045;-54
2023/06/27 04:55:13;;;;;;;3.90;2.08;;;;;;;18.75;62.39;96932.06;10133839;29;20112;-54
2023/06/27 05:00:32;;;;;;;3.92;2.00;;;;;;;18.73;62.62;96947.78;10146058;29;20056;-54
2023/06/27 05:05:52;;;;;;;2.97;2.00;;;;;;;18.87;60.82;96958.47;10148448;29;20081;-54
2023/06/27 05:11:12;;;;;;;4.65;2.03;;;;;;;18.96;60.34;96954.66;10153006;29;20481;-54
2023/06/27 05:16:32;;;;;;;5.25;2.17;;;;;;;19.19;59.88;96951.03;10152862;29;20064;-55
2023/06/27 05:21:52;;;;;;;5.70;2.20;;;;;;;19.42;59.50;96954.34;10152802;29;20048;-55
2023/06/27 05:27:11;;;;;;;5.07;2.60;;;;;;;19.57;59.07;96956.56;10152546;29;20052;-55
2023/06/27 05:32:30;;;;;;;3.90;2.40;;;;;;;19.68;58.61;96957.00;10142804;29;20053;-55
2023/06/27 05:37:50;;;;;;;8.75;2.45;;;;;;;19.75;58.53;96960.06;10152013;29;20389;-55
2023/06/27 05:43:09;;;;;;;4.63;2.47;;;;;;;19.80;58.48;96964.50;10139687;29;20060;-54
2023/06/27 05:48:29;;;;;;;5.18;2.58;;;;;;;19.85;58.29;96973.22;10138944;29;20056;-55
2023/06/27 05:53:48;;;;;;;4.70;2.88;;;;;;;19.89;58.31;96974.19;10151494;29;20053;-55
2023/06/27 05:59:08;;;;;;;5.50;3.10;;;;;;;19.92;58.18;96972.75;10139130;29;20119;-55
2023/06/27 06:04:27;;;;;;;6.03;3.35;;;;;;;19.95;58.17;96972.91;10151360;29;20048;-55
2023/06/27 06:09:46;;;;;;;5.72;3.10;;;;;;;19.97;58.01;96977.19;10151116;29;20049;-55
2023/06/27 06:15:07;;;;;;;5.25;3.22;;;;;;;19.99;58.13;96986.56;10150925;29;20103;-55
2023/06/27 06:20:29;;;;;;;5.25;3.03;;;;;;;20.02;58.24;96995.97;10149882;29;20056;-55
2023/06/27 06:25:48;;;;;;;4.75;2.92;;;;;;;20.05;58.31;96987.19;10115021;29;20442;-55
2023/06/27 06:31:10;;;;;;;4.85;2.78;;;;;;;20.07;58.42;97003.88;10105345;29;20475;-55
2023/06/27 06:36:30;;;;;;;2.88;2.30;;;;;;;20.09;58.49;96996.25;10111491;29;20413;-55
2023/06/27 06:41:49;;;;;;;7.05;2.47;;;;;;;20.09;58.46;96993.53;10110871;29;20501;-55
2023/06/27 06:47:10;;;;;;;3.88;2.30;;;;;;;20.11;58.53;96997.53;10109797;29;20049;-55
2023/06/27 06:52:30;;;;;;;3.15;2.10;;;;;;;20.12;58.57;96992.91;10110560;29;20075;-55
2023/06/27 06:57:49;;;;;;;3.80;2.30;;;;;;;20.13;58.59;96999.88;10110169;29;20048;-54
2023/06/27 07:03:09;;;;;;;2.90;2.25;;;;;;;20.15;58.58;97001.16;10098010;29;20060;-55
2023/06/27 07:08:29;;;;;;;3.67;2.20;;;;;;;20.17;58.71;97011.66;10109962;29;20055;-54
2023/06/27 07:13:48;;;;;;;3.58;2.20;;;;;;;20.19;58.68;96997.81;10109910;29;20091;-55
2023/06/27 07:19:08;;;;;;;3.85;2.47;;;;;;;20.20;58.69;97008.31;10109727;29;20052;-55
2023/06/27 07:24:27;;;;;;;4.63;2.25;;;;;;;20.21;58.70;97001.78;10109555;29;20406;-55
2023/06/27 07:29:46;;;;;;;3.55;2.17;;;;;;;20.21;58.67;96996.38;10106444;29;20060;-55
2023/06/27 07:35:06;;;;;;;3.90;2.40;;;;;;;20.22;58.67;96992.53;10095251;29;20048;-55
2023/06/27 07:40:25;;;;;;;3.47;2.50;;;;;;;20.22;58.76;96997.94;10096763;29;20053;-55
2023/06/27 07:45:45;;;;;;;3.30;2.20;;;;;;;20.24;58.74;97011.16;10108976;29;20076;-55
2023/06/27 07:51:04;;;;;;;4.03;2.40;;;;;;;20.24;58.63;97014.66;10108782;29;20045;-55
2023/06/27 07:56:24;;;;;;;4.07;2.50;;;;;;;20.26;58.68;97006.22;10108653;29;20052;-55
2023/06/27 08:01:43;;;;;;;3.28;2.53;;;;;;;20.25;58.76;96996.53;10108556;29;20045;-55
2023/06/27 08:07:03;;;;;;;2.80;2.20;;;;;;;20.25;58.76;96997.31;10108543;29;20185;-55
2023/06/27 08:12:23;;;;;;;3.30;2.50;;;;;;;20.28;58.65;97006.69;10108387;29;20041;-55
2023/06/27 08:17:42;;;;;;;2.70;2.03;;;;;;;20.27;58.69;97015.94;10108474;29;20055;-55
2023/06/27 08:23:02;;;;;;;3.92;2.15;;;;;;;20.27;58.86;97015.94;10094345;29;20068;-55
2023/06/27 08:28:21;;;;;;;3.63;2.10;;;;;;;20.28;58.83;97015.59;10108168;29;20049;-55
2023/06/27 08:33:41;;;;;;;4.22;2.20;;;;;;;20.27;58.89;97022.13;10095482;29;20053;-55
2023/06/27 08:39:00;;;;;;;3.00;1.92;;;;;;;20.29;58.91;97028.00;10107969;29;20048;-55
2023/06/27 08:44:20;;;;;;;3.03;1.92;;;;;;;20.28;58.78;97018.28;10115333;29;20048;-55
2023/06/27 08:49:40;;;;;;;3.10;2.10;;;;;;;20.29;58.89;97019.13;10101779;29;20057;-55
2023/06/27 08:55:02;;;;;;;2.63;2.25;;;;;;;20.30;58.78;97015.28;10115175;29;20454;-55
2023/06/27 09:00:24;;;;;;;2.78;2.15;;;;;;;20.30;58.78;97004.44;10114951;29;20541;-55
2023/06/27 09:05:44;;;;;;;2.88;1.95;;;;;;;20.30;58.88;97007.16;10113871;29;20051;-55
2023/06/27 09:11:08;;;;;;;2.90;2.40;;;;;;;20.30;58.76;97023.38;10114569;29;20041;-54
2023/06/27 09:16:28;;;;;;;2.45;2.13;;;;;;;20.31;58.76;97017.66;10114350;29;20481;-55
2023/06/27 09:21:50;;;;;;;2.17;1.95;;;;;;;20.32;58.88;97016.53;10114092;29;20561;-55
2023/06/27 09:27:33;;;;;;;3.50;2.22;;;;;;;20.32;58.85;97019.22;10100668;29;20053;-54
2023/06/27 09:32:58;;;;;;;2.70;2.05;;;;;;;20.31;58.87;97006.84;10103170;29;20060;-54
2023/06/27 09:38:18;;;;;;;3.00;2.10;;;;;;;20.32;58.87;97011.13;10113521;29;20497;-54
2023/06/27 09:43:38;;;;;;;3.55;1.95;;;;;;;20.32;58.82;97003.00;10101083;29;20059;-55
2023/06/27 09:48:58;;;;;;;3.08;2.00;;;;;;;20.32;58.81;97011.13;10113007;29;20049;-54
2023/06/27 09:54:21;;;;;;;2.25;1.85;;;;;;;20.33;58.82;97018.13;10112748;29;20045;-55
2023/06/27 09:59:41;;;;;;;2.53;1.90;;;;;;;20.33;58.67;97007.31;10100418;29;20057;-54
2023/06/27 10:05:00;;;;;;;2.88;1.80;;;;;;;20.33;58.68;97007.31;10100221;29;20061;-54
2023/06/27 10:10:20;;;;;;;2.75;2.00;;;;;;;20.34;58.73;97002.69;10112299;29;20048;-55
2023/06/27 10:15:40;;;;;;;2.33;1.80;;;;;;;20.34;58.72;97006.19;10098949;29;20057;-54
2023/06/27 10:20:59;;;;;;;3.03;1.80;;;;;;;20.33;58.80;97012.72;10112030;29;20450;-55
2023/06/27 10:26:20;;;;;;;1.95;1.70;;;;;;;20.34;58.76;97014.28;10099389;29;20064;-55
2023/06/27 10:31:45;;;;;;;1.90;1.65;;;;;;;20.33;58.79;97012.72;10104012;29;20445;-54
2023/06/27 10:37:05;;;;;;;1.92;1.70;;;;;;;20.35;58.74;97010.47;10098995;29;20128;-55
2023/06/27 10:42:24;;;;;;;2.97;1.80;;;;;;;20.34;58.82;97002.69;10097797;29;20064;-55
2023/06/27 10:47:44;;;;;;;3.35;2.00;;;;;;;20.34;58.67;96989.94;10110867;29;20049;-55
2023/06/27 10:53:07;;;;;;;2.40;1.80;;;;;;;20.34;58.75;96989.16;10110762;29;20052;-55
2023/06/27 10:58:44;;;;;;;3.55;1.90;;;;;;;20.34;58.81;96987.25;10110464;29;20052;-54
2023/06/27 11:04:26;;;;;;;2.13;1.80;;;;;;;20.35;58.79;96986.13;10109763;29;20047;-54
2023/06/27 11:09:52;;;;;;;2.05;1.85;;;;;;;20.35;58.74;96975.31;10110154;29;20104;-54
2023/06/27 11:15:12;;;;;;;2.22;1.65;;;;;;;20.36;58.77;96986.91;10110001;29;20051;-54
2023/06/27 11:20:31;;;;;;;1.95;1.60;;;;;;;20.37;58.83;96987.72;10109851;29;20053;-54
2023/06/27 11:25:52;;;;;;;1.95;1.73;;;;;;;20.35;58.77;96985.34;10109693;29;20041;-54
2023/06/27 11:31:13;;;;;;;3.42;1.60;;;;;;;20.35;58.79;96986.13;10103612;29;20057;-54
2023/06/27 11:36:35;;;;;;;1.95;1.65;;;;;;;20.35;58.85;96974.53;10109426;29;20405;-54
2023/06/27 11:41:55;;;;;;;1.60;1.50;;;;;;;20.35;58.85;96971.81;10108101;29;20060;-54
2023/06/27 11:47:16;;;;;;;2.03;1.35;;;;;;;20.35;58.84;96964.50;10109065;29;20486;-54
2023/06/27 11:52:36;;;;;;;2.08;1.70;;;;;;;20.35;58.74;96948.25;10108752;29;20140;-54
2023/06/27 11:57:58;;;;;;;3.00;2.00;;;;;;;20.37;58.86;96960.69;10096483;29;20060;-54
2023/06/27 12:03:24;;;;;;;2.22;1.73;;;;;;;20.38;58.80;96951.44;10108624;29;20412;-54
2023/06/27 12:08:44;;;;;;;2.63;1.75;;;;;;;20.37;58.74;96950.63;10108492;29;20056;-54
2023/06/27 12:14:04;;;;;;;1.35;1.25;;;;;;;20.37;58.77;96944.44;10108436;29;20049;-54
2023/06/27 12:19:24;;;;;;;1.75;1.63;;;;;;;20.38;58.83;96943.31;10116301;29;20109;-55
2023/06/27 12:24:43;;;;;;;2.08;1.58;;;;;;;20.37;58.83;96941.75;10116116;29;20127;-54
2023/06/27 12:30:05;;;;;;;2.92;1.50;;;;;;;20.38;58.80;96944.09;10112640;29;20405;-55
2023/06/27 12:35:25;;;;;;;2.40;1.60;;;;;;;20.39;58.84;96947.63;10115693;29;20048;-54
2023/06/27 12:40:45;;;;;;;1.70;1.60;;;;;;;20.39;58.92;96942.19;10115510;29;20060;-54
2023/06/27 12:46:05;;;;;;;1.92;1.60;;;;;;;20.39;59.06;96939.50;10115381;29;20044;-54
2023/06/27 12:51:24;;;;;;;2.05;1.50;;;;;;;20.39;58.78;96925.97;10115184;29;20048;-54
2023/06/27 12:56:44;;;;;;;2.05;1.60;;;;;;;20.38;58.79;96935.19;10114980;29;20051;-55
2023/06/27 13:02:03;;;;;;;2.00;1.40;;;;;;;20.39;58.73;96923.25;10114913;29;20072;-55
2023/06/27 13:07:23;;;;;;;1.75;1.60;;;;;;;20.39;58.77;96915.16;10114771;29;20215;-54
2023/06/27 13:12:42;;;;;;;1.85;1.60;;;;;;;20.39;58.72;96920.56;10114293;29;20060;-55
2023/06/27 13:18:02;;;;;;;1.90;1.52;;;;;;;20.39;58.64;96907.03;10114240;29;20048;-54
2023/06/27 13:23:22;;;;;;;1.70;1.60;;;;;;;20.40;58.72;96908.59;10113979;29;20052;-54
2023/06/27 13:28:41;;;;;;;1.50;1.40;;;;;;;20.40;58.81;96903.97;10113164;29;20052;-55
2023/06/27 13:34:02;;;;;;;1.65;1.48;;;;;;;20.39;58.69;96891.59;10113436;29;20045;-55
2023/06/27 13:39:22;;;;;;;1.30;1.20;;;;;;;20.40;58.71;96890.44;10113410;29;20486;-55
2023/06/27 13:44:41;;;;;;;1.40;1.30;;;;;;;20.41;58.63;96891.25;10113195;29;20041;-54
2023/06/27 13:50:01;;;;;;;2.28;1.50;;;;;;;20.40;58.66;96889.66;10112987;29;20173;-55
2023/06/27 13:55:20;;;;;;;2.05;1.50;;;;;;;20.42;58.73;96879.31;10112846;29;20166;-54
2023/06/27 14:00:40;;;;;;;1.33;1.23;;;;;;;20.41;58.64;96869.63;10100388;29;20059;-54
2023/06/27 14:06:00;;;;;;;1.50;1.40;;;;;;;20.41;58.52;96864.19;10100120;29;20056;-54
2023/06/27 14:11:19;;;;;;;1.52;1.42;;;;;;;20.42;58.59;96860.34;10112194;29;20055;-55
2023/06/27 14:16:39;;;;;;;2.13;1.50;;;;;;;20.43;58.60;96861.97;10112123;29;20052;-54
2023/06/27 14:21:59;;;;;;;1.52;1.30;;;;;;;20.43;58.66;96861.97;10111942;29;20052;-55
2023/06/27 14:27:19;;;;;;;1.40;1.30;;;;;;;20.42;58.49;96844.91;10097555;29;20045;-54
2023/06/27 14:32:38;;;;;;;1.55;1.40;;;;;;;20.43;58.41;96851.13;10101354;29;20053;-55
2023/06/27 14:37:57;;;;;;;1.42;1.30;;;;;;;20.42;58.37;96855.72;10098073;29;20061;-54
2023/06/27 14:43:19;;;;;;;1.40;1.30;;;;;;;20.43;58.29;96851.13;10111084;29;20067;-55
2023/06/27 14:48:40;;;;;;;2.28;1.52;;;;;;;20.43;58.23;96851.13;10110821;29;20056;-55
2023/06/27 14:53:59;;;;;;;1.42;1.30;;;;;;;20.44;58.42;96836.47;10098338;29;20152;-54
2023/06/27 14:59:19;;;;;;;1.35;1.23;;;;;;;20.44;58.43;96844.59;10110507;29;20138;-54
2023/06/27 15:04:38;;;;;;;1.50;1.25;;;;;;;20.44;58.31;96839.19;10110317;29;20045;-54
2023/06/27 15:09:58;;;;;;;1.77;1.30;;;;;;;20.44;58.29;96839.19;10109988;29;20104;-55
2023/06/27 15:15:18;;;;;;;1.40;1.30;;;;;;;20.44;58.29;96848.06;10097649;29;20139;-54
2023/06/27 15:20:37;;;;;;;1.40;1.30;;;;;;;20.42;58.30;96842.19;10095658;29;20052;-54
2023/06/27 15:25:57;;;;;;;2.30;1.27;;;;;;;20.44;58.26;96839.97;10109589;29;20049;-54
2023/06/27 15:31:17;;;;;;;2.30;1.13;;;;;;;20.44;58.16;96844.59;10096296;29;20493;-54
2023/06/27 15:36:36;;;;;;;1.35;1.23;;;;;;;20.42;57.50;96834.09;10110491;29;20049;-54
2023/06/27 15:41:56;;;;;;;1.83;1.23;;;;;;;20.43;57.83;96841.09;10109143;29;20053;-54
2023/06/27 15:47:15;;;;;;;2.30;1.33;;;;;;;20.42;57.62;96844.13;10109149;29;20045;-54
2023/06/27 15:52:35;;;;;;;1.20;1.10;;;;;;;20.43;57.58;96845.72;10108569;29;20478;-54
2023/06/27 15:57:55;;;;;;;1.73;1.27;;;;;;;20.42;57.56;96831.38;10108776;29;20049;-54
2023/06/27 16:03:14;;;;;;;1.35;1.20;;;;;;;20.42;57.53;96844.91;10108726;29;20053;-54
2023/06/27 16:08:34;;;;;;;1.80;1.20;;;;;;;20.43;57.63;96848.44;10108522;29;20052;-54
2023/06/27 16:13:53;;;;;;;1.63;1.20;;;;;;;20.43;57.79;96832.19;10108386;29;20057;-54
2023/06/27 16:19:13;;;;;;;1.90;1.40;;;;;;;20.43;57.74;96851.91;10108297;29;20525;-54
2023/06/27 16:24:32;;;;;;;3.20;1.20;;;;;;;20.42;54.29;96846.84;10108168;29;20045;-53
2023/06/27 16:29:52;;;;;;;2.05;1.02;;;;;;;20.40;50.80;96849.06;10103141;29;20064;-53
2023/06/27 16:35:11;;;;;;;2.97;1.25;;;;;;;20.37;48.71;96860.56;10095199;29;20163;-53
2023/06/27 16:40:34;;;;;;;2.03;1.02;;;;;;;20.35;47.95;96858.97;10107890;29;20056;-53
2023/06/27 16:45:53;;;;;;;3.97;1.20;;;;;;;20.34;46.86;96859.28;10095473;29;20061;-53
2023/06/27 16:51:13;;;;;;;3.33;1.10;;;;;;;20.33;46.22;96863.91;10107584;29;20084;-53
2023/06/27 16:56:32;;;;;;;5.88;2.20;;;;;;;20.32;45.89;96862.31;10107567;29;20045;-53
2023/06/27 17:01:52;;;;;;;2.35;1.30;;;;;;;20.32;46.13;96865.03;10110084;29;20494;-53
2023/06/27 17:07:12;;;;;;;2.13;1.30;;;;;;;20.28;45.84;96869.50;10114591;29;20045;-53
2023/06/27 17:12:32;;;;;;;4.60;1.30;;;;;;;20.28;44.78;96884.94;10114282;29;20055;-53
2023/06/27 17:17:52;;;;;;;3.38;1.20;;;;;;;20.27;44.69;96891.50;10114183;29;20408;-53
2023/06/27 17:23:11;;;;;;;1.30;1.00;;;;;;;20.25;45.22;96894.53;10101648;29;20081;-53
2023/06/27 17:28:31;;;;;;;1.45;1.00;;;;;;;20.24;46.00;96900.25;10113739;29;20049;-53
2023/06/27 17:33:50;;;;;;;5.07;1.10;;;;;;;20.21;47.01;96903.59;10100584;29;20386;-53
2023/06/27 17:39:09;;;;;;;3.03;1.25;;;;;;;20.17;47.82;96897.25;10113437;29;20128;-54
2023/06/27 17:44:29;;;;;;;2.97;1.10;;;;;;;20.16;48.96;96907.28;10100905;29;20068;-53
2023/06/27 17:49:48;;;;;;;6.53;1.30;;;;;;;20.21;50.78;96907.13;10100527;29;20072;-57
2023/06/27 17:55:08;;;;;;;2.00;1.27;;;;;;;20.23;50.64;96907.56;10100509;29;20079;-53
2023/06/27 18:00:28;;;;;;;2.85;1.10;;;;;;;20.23;51.57;96912.19;10112671;29;20161;-53
2023/06/27 18:05:48;;;;;;;2.10;0.93;;;;;;;20.22;50.51;96911.38;10112494;29;20056;-54
2023/06/27 18:11:08;;;;;;;1.65;0.90;;;;;;;20.21;50.13;96926.06;10112106;29;20051;-56
2023/06/27 18:16:31;;;;;;;1.42;1.00;;;;;;;20.21;50.03;96923.34;10112011;29;20182;-54
2023/06/27 18:21:51;;;;;;;2.17;1.08;;;;;;;20.16;46.60;96928.91;10111810;29;20494;-53
2023/06/27 18:27:10;;;;;;;4.05;1.00;;;;;;;20.18;49.05;96934.81;10111722;29;20079;-54
2023/06/27 18:32:30;;;;;;;2.20;0.98;;;;;;;20.20;50.09;96946.09;10101739;29;20049;-55
2023/06/27 18:37:49;;;;;;;1.35;1.00;;;;;;;20.21;50.60;96947.69;10111216;29;20052;-55
2023/06/27 18:43:09;;;;;;;2.53;1.10;;;;;;;20.20;50.00;96932.56;10111049;29;20385;-55
2023/06/27 18:48:29;;;;;;;3.67;1.00;;;;;;;20.18;47.98;96939.44;10110873;29;20049;-53
2023/06/27 18:53:49;;;;;;;1.73;0.98;;;;;;;20.17;49.10;96930.53;10110587;29;20049;-55
2023/06/27 18:59:09;;;;;;;1.23;0.95;;;;;;;20.19;49.19;96914.75;10110436;29;20053;-57
2023/06/27 19:04:29;;;;;;;1.65;1.08;;;;;;;20.19;48.89;96905.84;10110259;29;20607;-57
2023/06/27 19:09:49;;;;;;;5.82;1.15;;;;;;;20.18;48.75;96902.34;10109951;29;20048;-57
2023/06/27 19:15:09;;;;;;;5.47;1.20;;;;;;;20.17;48.73;96913.47;10097021;29;20080;-56
2023/06/27 19:20:29;;;;;;;3.53;1.05;;;;;;;20.15;48.67;96921.94;10097465;29;20396;-56
2023/06/27 19:25:49;;;;;;;2.20;1.20;;;;;;;20.15;48.97;96933.53;10096304;29;20533;-59
2023/06/27 19:31:09;;;;;;;2.53;1.20;;;;;;;20.15;49.12;96949.00;10103243;29;20109;-57
2023/06/27 19:36:29;;;;;;;2.22;1.13;;;;;;;20.15;49.04;96951.69;10108256;29;20041;-54
2023/06/27 19:41:50;;;;;;;2.47;1.20;;;;;;;20.15;49.06;96965.22;10109138;29;20049;-55
2023/06/27 19:47:10;;;;;;;2.00;1.00;;;;;;;20.12;48.47;96965.84;10096719;29;20057;-56
2023/06/27 19:52:29;;;;;;;1.10;0.90;;;;;;;20.11;48.40;96972.38;10096431;29;20082;-55
2023/06/27 19:57:49;;;;;;;3.38;1.27;;;;;;;20.13;48.93;96972.84;10108677;29;20052;-56
2023/06/27 20:03:08;;;;;;;4.13;1.20;;;;;;;20.11;48.63;96964.25;10108603;29;20053;-53
2023/06/27 20:08:28;;;;;;;1.30;0.98;;;;;;;20.10;48.17;96951.88;10096092;29;20195;-55
2023/06/27 20:13:48;;;;;;;2.63;1.10;;;;;;;20.08;48.27;96933.25;10108349;29;20056;-54
2023/06/27 20:19:07;;;;;;;5.20;1.05;;;;;;;20.06;47.74;96929.28;10108271;29;20059;-55
2023/06/27 20:24:27;;;;;;;1.00;0.85;;;;;;;20.07;48.19;96930.88;10095886;29;20067;-55
2023/06/27 20:29:46;;;;;;;3.00;0.88;;;;;;;20.06;48.37;96923.88;10105549;29;20049;-55
2023/06/27 20:35:07;;;;;;;2.25;1.10;;;;;;;20.07;49.11;96922.75;10107990;29;20092;-56
2023/06/27 20:40:27;;;;;;;2.45;1.25;;;;;;;20.07;49.76;96930.88;10101547;29;20128;-56
2023/06/27 20:45:46;;;;;;;2.22;1.00;;;;;;;20.09;50.50;96934.03;10103086;29;20052;-56
2023/06/27 20:51:06;;;;;;;1.98;0.98;;;;;;;20.11;50.89;96931.78;10115165;29;20049;-56
2023/06/27 20:56:25;;;;;;;1.30;0.90;;;;;;;20.11;51.12;96929.09;10114939;29;20045;-56
2023/06/27 21:01:45;;;;;;;1.83;0.90;;;;;;;20.13;51.32;96940.38;10114835;29;20052;-56
2023/06/27 21:07:06;;;;;;;1.63;0.80;;;;;;;20.13;51.57;96937.69;10102218;29;20060;-56
2023/06/27 21:12:25;;;;;;;0.88;0.85;;;;;;;20.13;51.76;96932.25;10113431;29;20052;-56
2023/06/27 21:17:45;;;;;;;0.88;0.85;;;;;;;20.12;51.91;96950.41;10114354;29;20052;-56
2023/06/27 21:23:05;;;;;;;0.77;0.77;;;;;;;20.13;52.06;96983.66;10114133;29;20049;-56
2023/06/27 21:28:27;;;;;;;1.20;0.90;;;;;;;20.13;52.19;96999.88;10113845;29;20044;-56
2023/06/27 21:33:48;;;;;;;0.93;0.80;;;;;;;20.13;52.28;96999.88;10100806;29;20064;-56
2023/06/27 21:39:08;;;;;;;0.88;0.88;;;;;;;20.14;52.35;97015.78;10113480;29;20045;-56
2023/06/27 21:44:27;;;;;;;1.38;0.90;;;;;;;20.15;52.50;97027.44;10113320;29;20041;-56
2023/06/27 21:49:46;;;;;;;0.82;0.82;;;;;;;20.14;52.66;97017.72;10112570;29;20486;-56
2023/06/27 21:55:06;;;;;;;1.10;0.88;;;;;;;20.15;52.75;96998.47;10112914;29;20045;-56
2023/06/27 22:00:26;;;;;;;0.85;0.70;;;;;;;20.14;52.94;96956.28;10100331;29;20053;-56
2023/06/27 22:05:45;;;;;;;1.52;1.00;;;;;;;20.14;52.90;96945.47;10112532;29;20064;-56
2023/06/27 22:11:04;;;;;;;1.15;0.90;;;;;;;20.15;53.00;96933.53;10112286;29;20045;-56
2023/06/27 22:16:24;;;;;;;1.63;0.70;;;;;;;20.15;53.07;96932.75;10099989;29;20105;-56
2023/06/27 22:21:43;;;;;;;1.13;1.00;;;;;;;20.15;53.15;96911.13;10099790;29;20053;-56
2023/06/27 22:27:03;;;;;;;0.90;0.75;;;;;;;20.14;53.15;96904.91;10112083;29;20462;-56
2023/06/27 22:32:23;;;;;;;0.73;0.73;;;;;;;20.14;53.25;96896.78;10119978;29;20057;-56
2023/06/27 22:37:42;;;;;;;0.85;0.80;;;;;;;20.15;53.45;96900.31;10137702;29;20052;-56
2023/06/27 22:43:02;;;;;;;0.90;0.75;;;;;;;20.15;53.42;96908.41;10149857;29;20052;-56
2023/06/27 22:48:23;;;;;;;1.40;1.27;;;;;;;20.15;53.46;96928.13;10149736;29;20051;-56
2023/06/27 22:53:46;;;;;;;0.77;0.70;;;;;;;20.15;53.42;96916.53;10149652;29;20036;-56
2023/06/27 22:59:06;;;;;;;0.70;0.70;;;;;;;20.15;53.59;96927.34;10148731;29;20054;-56
2023/06/27 23:04:25;;;;;;;0.77;0.77;;;;;;;20.14;53.68;96918.44;10149227;29;20044;-56
2023/06/27 23:09:44;;;;;;;0.98;0.70;;;;;;;20.15;53.70;96919.25;10148946;29;20420;-56
2023/06/27 23:15:04;;;;;;;0.80;0.80;;;;;;;20.15;53.74;96917.31;10148870;29;20044;-56
2023/06/27 23:20:28;;;;;;;0.55;0.52;;;;;;;20.15;53.80;96914.63;10148685;29;20044;-56
2023/06/27 23:25:48;;;;;;;1.30;1.00;;;;;;;20.16;53.86;96915.41;10148518;29;20044;-56
2023/06/27 23:31:08;;;;;;;0.80;0.80;;;;;;;20.15;53.89;96924.66;10142108;29;20068;-56
2023/06/27 23:36:28;;;;;;;0.70;0.70;;;;;;;20.15;53.95;96917.31;10135641;29;20079;-56
2023/06/27 23:41:48;;;;;;;0.80;0.80;;;;;;;20.15;54.01;96913.81;10147995;29;20516;-56
2023/06/27 23:47:08;;;;;;;1.00;0.90;;;;;;;20.14;54.08;96923.84;10135351;29;20115;-56
2023/06/27 23:52:27;;;;;;;1.08;0.90;;;;;;;20.16;54.02;96918.09;10135053;29;20075;-56
2023/06/27 23:57:46;;;;;;;0.70;0.70;;;;;;;20.15;54.13;96913.81;10146531;29;20382;-56
